Time;durP1;ratioP1;P1;durP2;ratioP2;P2;SDS_P1;SDS_P2;PMS_P1;PMS_P2;Temp;Humidity;BMP_temperature;BMP_pressure;BME280_temperature;BME280_humidity;BME280_pressure;Samples;Min_cycle;Max_cycle;Signal;HPM_P1;HPM_P2
2023/04/28 00:00:37;;;;;;;17.50;12.60;;;;;;;13.84;100.00;100247.87;106034;1252;64863;-86
2023/04/28 00:03:04;;;;;;;13.90;10.90;;;;;;;13.83;100.00;100255.14;106023;1258;73592;-86
2023/04/28 00:05:32;;;;;;;9.30;7.70;;;;;;;13.82;100.00;100250.48;106022;1256;63149;-88
2023/04/28 00:07:59;;;;;;;12.60;7.70;;;;;;;13.79;100.00;100252.01;105957;1253;62402;-86
2023/04/28 00:10:26;;;;;;;15.10;9.10;;;;;;;13.75;100.00;100248.61;106117;1253;73341;-85
2023/04/28 00:12:53;;;;;;;8.30;7.30;;;;;;;13.74;100.00;100251.32;106303;1253;63741;-86
2023/04/28 00:15:20;;;;;;;8.80;6.70;;;;;;;13.72;100.00;100251.98;105820;1253;73652;-85
2023/04/28 00:17:47;;;;;;;9.80;7.40;;;;;;;13.73;100.00;100250.30;106008;1257;61971;-89
2023/04/28 00:20:14;;;;;;;10.00;6.90;;;;;;;13.73;100.00;100243.48;106053;1253;61306;-88
2023/04/28 00:22:41;;;;;;;8.10;6.60;;;;;;;13.74;100.00;100243.08;105963;1252;72980;-87
2023/04/28 00:25:08;;;;;;;7.30;6.50;;;;;;;13.73;100.00;100246.80;105996;1253;63759;-86
2023/04/28 00:27:35;;;;;;;7.40;6.70;;;;;;;13.72;100.00;100249.75;105878;1255;73552;-86
2023/04/28 00:30:03;;;;;;;10.80;7.60;;;;;;;13.73;100.00;100251.56;106110;1256;62947;-87
2023/04/28 00:32:30;;;;;;;14.00;7.20;;;;;;;13.76;100.00;100254.17;106059;1253;61025;-86
2023/04/28 00:34:57;;;;;;;7.80;6.50;;;;;;;13.74;100.00;100253.96;105949;1252;73842;-87
2023/04/28 00:37:23;;;;;;;7.20;6.20;;;;;;;13.70;100.00;100252.68;105955;1256;64913;-85
2023/04/28 00:39:55;;;;;;;9.50;6.30;;;;;;;13.68;100.00;100252.80;105830;1255;74309;-86
2023/04/28 00:42:22;;;;;;;8.90;7.10;;;;;;;13.68;100.00;100252.65;105845;1253;62138;-86
2023/04/28 00:44:49;;;;;;;11.10;6.90;;;;;;;13.68;100.00;100254.86;106755;1255;60358;-88
2023/04/28 00:47:16;;;;;;;18.40;6.90;;;;;;;13.70;100.00;100252.37;106185;1253;73994;-85
2023/04/28 00:49:43;;;;;;;8.70;6.70;;;;;;;13.72;100.00;100256.55;105885;1253;63198;-88
2023/04/28 00:52:10;;;;;;;10.30;6.90;;;;;;;13.73;100.00;100254.91;105784;1253;73483;-87
2023/04/28 00:54:37;;;;;;;15.50;7.80;;;;;;;13.73;100.00;100255.62;105879;1253;61852;-86
2023/04/28 00:57:04;;;;;;;8.60;6.90;;;;;;;13.72;100.00;100249.89;105913;1254;61239;-84
2023/04/28 00:59:31;;;;;;;7.80;6.60;;;;;;;13.72;100.00;100255.02;107581;1253;73588;-83
2023/04/28 01:01:58;;;;;;;11.20;7.40;;;;;;;13.72;100.00;100253.95;107150;1252;62268;-85
2023/04/28 01:04:26;;;;;;;7.20;6.20;;;;;;;13.69;100.00;100258.52;106491;1253;73489;-84
2023/04/28 01:06:53;;;;;;;9.50;6.90;;;;;;;13.67;100.00;100260.61;106720;1251;61833;-85
2023/04/28 01:09:20;;;;;;;10.10;6.80;;;;;;;13.69;100.00;100261.58;106880;1256;59964;-84
2023/04/28 01:11:48;;;;;;;11.50;7.00;;;;;;;13.71;100.00;100267.74;106116;1253;74131;-87
2023/04/28 01:14:35;;;;;;;7.90;7.20;;;;;;;13.70;100.00;100262.88;105811;1255;64846;-87
2023/04/28 01:17:02;;;;;;;9.90;7.20;;;;;;;13.70;100.00;100262.19;105861;1253;74047;-86
2023/04/28 01:19:29;;;;;;;7.80;6.40;;;;;;;13.69;100.00;100271.02;105840;1256;62853;-86
2023/04/28 01:21:56;;;;;;;8.50;6.90;;;;;;;13.67;100.00;100276.05;107273;1257;60776;-85
2023/04/28 01:24:24;;;;;;;9.10;6.60;;;;;;;13.65;100.00;100272.73;106060;1253;73832;-86
2023/04/28 01:26:51;;;;;;;7.00;6.30;;;;;;;13.65;100.00;100274.68;105857;1253;63503;-85
2023/04/28 01:29:17;;;;;;;12.00;7.90;;;;;;;13.65;100.00;100282.76;105935;1253;73689;-87
2023/04/28 01:31:44;;;;;;;12.30;7.00;;;;;;;13.64;100.00;100282.29;105835;1253;63019;-85
2023/04/28 01:34:13;;;;;;;12.20;7.10;;;;;;;13.62;100.00;100287.55;105950;1253;61099;-85
2023/04/28 01:36:41;;;;;;;9.30;7.30;;;;;;;13.64;100.00;100285.98;106099;1256;74114;-86
2023/04/28 01:39:09;;;;;;;7.60;6.70;;;;;;;13.69;100.00;100291.90;106270;1253;63943;-88
2023/04/28 01:41:36;;;;;;;7.20;6.20;;;;;;;13.74;100.00;100293.11;107194;1253;74066;-86
2023/04/28 01:44:05;;;;;;;7.90;6.30;;;;;;;13.77;100.00;100299.02;106320;1253;61376;-86
2023/04/28 01:46:32;;;;;;;10.40;7.40;;;;;;;13.78;100.00;100302.11;105879;1257;60280;-85
2023/04/28 01:48:59;;;;;;;6.30;5.70;;;;;;;13.81;100.00;100297.83;105695;1253;73142;-86
2023/04/28 01:51:26;;;;;;;10.50;6.70;;;;;;;13.82;100.00;100298.95;105803;1256;64791;-87
2023/04/28 01:53:53;;;;;;;6.80;6.10;;;;;;;13.81;100.00;100301.38;105787;1253;73555;-86
2023/04/28 01:56:20;;;;;;;12.40;6.90;;;;;;;13.77;100.00;100300.63;105832;1253;61839;-87
2023/04/28 01:58:47;;;;;;;6.70;6.00;;;;;;;13.74;100.00;100302.83;106187;1255;60037;-86
2023/04/28 02:01:14;;;;;;;9.20;7.00;;;;;;;13.72;100.00;100310.00;105840;1254;73098;-87
2023/04/28 02:03:42;;;;;;;7.50;6.40;;;;;;;13.72;100.00;100306.09;105905;1253;63605;-85
2023/04/28 02:06:09;;;;;;;9.70;6.70;;;;;;;13.72;100.00;100302.05;106824;1256;73484;-84
2023/04/28 02:08:36;;;;;;;9.10;5.90;;;;;;;13.71;100.00;100296.48;106479;1256;63005;-84
2023/04/28 02:11:03;;;;;;;8.00;7.10;;;;;;;13.72;100.00;100300.17;107429;1253;60725;-84
2023/04/28 02:13:31;;;;;;;8.30;6.80;;;;;;;13.72;100.00;100304.67;106649;1253;73000;-82
2023/04/28 02:16:01;;;;;;;9.00;6.00;;;;;;;13.75;100.00;100304.98;106350;1253;63538;-85
2023/04/28 02:18:28;;;;;;;10.30;7.10;;;;;;;13.76;100.00;100307.52;105972;1253;73711;-84
2023/04/28 02:21:10;;;;;;;10.20;6.50;;;;;;;13.76;100.00;100304.73;106850;1253;62025;-82
2023/04/28 02:23:38;;;;;;;9.80;7.90;;;;;;;13.75;100.00;100305.17;108302;1252;60332;-83
2023/04/28 02:26:05;;;;;;;9.60;6.90;;;;;;;13.73;100.00;100311.44;107313;1253;73673;-85
2023/04/28 02:28:32;;;;;;;26.20;7.20;;;;;;;13.74;100.00;100320.55;106148;1257;64887;-85
2023/04/28 02:31:04;;;;;;;8.00;6.50;;;;;;;13.73;100.00;100324.16;105861;1257;73677;-85
2023/04/28 02:33:31;;;;;;;7.90;6.60;;;;;;;13.69;100.00;100330.92;105995;1257;61791;-86
2023/04/28 02:35:59;;;;;;;8.10;6.90;;;;;;;13.68;100.00;100337.88;105978;1253;61023;-86
2023/04/28 02:38:26;;;;;;;8.20;6.40;;;;;;;13.67;100.00;100334.08;105804;1252;73806;-88
2023/04/28 02:41:00;;;;;;;9.00;7.20;;;;;;;13.64;100.00;100335.87;105891;1253;65325;-85
2023/04/28 02:43:27;;;;;;;11.30;7.90;;;;;;;13.60;100.00;100336.93;105919;1253;72492;-86
2023/04/28 02:45:54;;;;;;;11.40;7.50;;;;;;;13.59;100.00;100338.93;105958;1253;62960;-88
2023/04/28 02:48:21;;;;;;;14.30;7.90;;;;;;;13.56;100.00;100343.85;106151;1252;61475;-83
2023/04/28 02:50:48;;;;;;;11.40;8.10;;;;;;;13.57;100.00;100342.02;105829;1253;73971;-86
2023/04/28 02:53:15;;;;;;;9.50;7.30;;;;;;;13.57;100.00;100339.39;105804;1253;64584;-88
2023/04/28 02:55:42;;;;;;;9.60;7.80;;;;;;;13.57;100.00;100339.71;105754;1253;73320;-86
2023/04/28 02:58:09;;;;;;;12.30;7.40;;;;;;;13.58;100.00;100337.01;105846;1253;62019;-87
2023/04/28 03:00:36;;;;;;;11.10;6.80;;;;;;;13.59;100.00;100340.13;105976;1256;60550;-85
2023/04/28 03:03:03;;;;;;;13.30;7.70;;;;;;;13.57;100.00;100344.16;105874;1255;75081;-87
2023/04/28 03:05:30;;;;;;;9.10;7.30;;;;;;;13.54;100.00;100351.91;106572;1253;64738;-82
2023/04/28 03:07:58;;;;;;;16.00;7.90;;;;;;;13.54;100.00;100352.66;106019;1253;72689;-86
2023/04/28 03:10:25;;;;;;;14.70;7.80;;;;;;;13.55;100.00;100358.38;106376;1253;62872;-83
2023/04/28 03:12:52;;;;;;;8.50;7.50;;;;;;;13.57;100.00;100363.80;106565;1253;61261;-85
2023/04/28 03:15:18;;;;;;;11.40;7.30;;;;;;;13.60;100.00;100365.34;106187;1253;73849;-84
2023/04/28 03:17:45;;;;;;;11.30;7.50;;;;;;;13.62;100.00;100361.52;106232;1255;63899;-85
2023/04/28 03:20:12;;;;;;;10.60;7.80;;;;;;;13.61;100.00;100359.16;105856;1253;72453;-86
2023/04/28 03:22:39;;;;;;;9.90;8.20;;;;;;;13.55;100.00;100357.13;107275;1255;62395;-85
2023/04/28 03:25:07;;;;;;;11.00;7.90;;;;;;;13.52;100.00;100355.62;106824;1253;61303;-88
2023/04/28 03:27:38;;;;;;;13.20;8.90;;;;;;;13.48;100.00;100352.55;105812;1255;74915;-86
2023/04/28 03:30:05;;;;;;;10.00;7.70;;;;;;;13.41;100.00;100349.40;106225;1253;63787;-86
2023/04/28 03:32:32;;;;;;;9.80;7.90;;;;;;;13.35;100.00;100348.65;105791;1257;73620;-85
2023/04/28 03:34:59;;;;;;;11.00;8.00;;;;;;;13.33;100.00;100348.80;105790;1257;61806;-86
2023/04/28 03:37:26;;;;;;;16.70;9.50;;;;;;;13.31;100.00;100349.16;105813;1255;61269;-86
2023/04/28 03:39:53;;;;;;;11.40;9.40;;;;;;;13.31;100.00;100347.06;105788;1256;75005;-87
2023/04/28 03:42:20;;;;;;;10.00;8.30;;;;;;;13.29;100.00;100346.11;105834;1257;65085;-86
2023/04/28 03:45:07;;;;;;;9.70;8.30;;;;;;;13.29;100.00;100337.12;106110;1256;72001;-86
2023/04/28 03:47:35;;;;;;;9.10;7.90;;;;;;;13.33;100.00;100338.79;105857;1253;63154;-85
2023/04/28 03:50:02;;;;;;;11.40;8.50;;;;;;;13.34;100.00;100335.19;106391;1253;60449;-85
2023/04/28 03:52:29;;;;;;;10.30;7.40;;;;;;;13.36;100.00;100336.96;107119;1256;74756;-85
2023/04/28 03:54:56;;;;;;;17.00;8.40;;;;;;;13.38;100.00;100327.02;106992;1253;63851;-85
2023/04/28 03:57:23;;;;;;;13.10;7.30;;;;;;;13.39;100.00;100318.79;105923;1253;72632;-87
2023/04/28 03:59:50;;;;;;;10.10;7.30;;;;;;;13.42;100.00;100317.58;106029;1253;62760;-85
2023/04/28 04:02:17;;;;;;;10.90;8.10;;;;;;;13.42;100.00;100317.00;106022;1253;61266;-86
2023/04/28 04:04:44;;;;;;;12.00;7.20;;;;;;;13.42;100.00;100314.73;105809;1253;74778;-85
2023/04/28 04:07:12;;;;;;;9.20;6.80;;;;;;;13.41;100.00;100321.12;105827;1254;63465;-85
2023/04/28 04:09:39;;;;;;;10.40;7.40;;;;;;;13.42;100.00;100318.64;105871;1256;73496;-88
2023/04/28 04:12:06;;;;;;;10.90;7.90;;;;;;;13.44;100.00;100308.91;105930;1256;62770;-86
2023/04/28 04:14:33;;;;;;;8.10;6.60;;;;;;;13.44;100.00;100305.08;105948;1253;61415;-85
2023/04/28 04:17:00;;;;;;;8.50;7.60;;;;;;;13.41;100.00;100302.15;107146;1256;74125;-85
2023/04/28 04:19:27;;;;;;;16.90;8.50;;;;;;;13.39;100.00;100299.30;106309;1253;64732;-86
2023/04/28 04:22:10;;;;;;;8.70;7.20;;;;;;;13.38;100.00;100305.96;106417;1253;73465;-87
2023/04/28 04:25:07;;;;;;;8.50;7.20;;;;;;;13.34;100.00;100307.44;106768;1254;60946;-87
2023/04/28 04:27:34;;;;;;;9.60;6.90;;;;;;;13.33;100.00;100302.10;105972;1255;60529;-86
2023/04/28 04:30:01;;;;;;;10.60;8.20;;;;;;;13.31;100.00;100297.33;106115;1257;75030;-87
2023/04/28 04:32:28;;;;;;;11.50;7.20;;;;;;;13.31;100.00;100297.91;106016;1253;64692;-86
2023/04/28 04:34:56;;;;;;;10.40;7.00;;;;;;;13.32;100.00;100294.79;106034;1256;73711;-88
2023/04/28 04:37:23;;;;;;;9.60;7.00;;;;;;;13.33;100.00;100296.83;105866;1253;61623;-88
2023/04/28 04:39:56;;;;;;;13.40;8.10;;;;;;;13.38;100.00;100298.41;105840;1256;60467;-88
2023/04/28 04:42:23;;;;;;;8.10;6.70;;;;;;;13.42;100.00;100301.44;105866;1257;76085;-84
2023/04/28 04:45:07;;;;;;;9.80;7.50;;;;;;;13.43;100.00;100302.55;105918;1255;63533;-86
2023/04/28 04:47:35;;;;;;;8.20;7.40;;;;;;;13.42;100.00;100300.83;105979;1253;72818;-84
2023/04/28 04:50:02;;;;;;;12.20;8.60;;;;;;;13.42;100.00;100300.17;106073;1255;61866;-84
2023/04/28 04:52:29;;;;;;;11.10;7.80;;;;;;;13.42;100.00;100305.44;105978;1252;61109;-86
2023/04/28 04:54:56;;;;;;;8.70;7.10;;;;;;;13.42;100.00;100307.88;105912;1253;74797;-86
2023/04/28 04:57:23;;;;;;;8.80;7.00;;;;;;;13.42;100.00;100311.02;105942;1253;63822;-87
2023/04/28 05:00:05;;;;;;;9.10;7.00;;;;;;;13.41;100.00;100312.51;106084;1253;74036;-85
2023/04/28 05:02:32;;;;;;;10.60;7.20;;;;;;;13.40;100.00;100316.30;106684;1255;63068;-86
2023/04/28 05:05:03;;;;;;;7.40;6.00;;;;;;;13.41;100.00;100320.98;106084;1253;60455;-86
2023/04/28 05:07:51;;;;;;;10.00;6.60;;;;;;;13.43;100.00;100324.11;105853;1253;73823;-85
2023/04/28 05:10:19;;;;;;;8.30;7.50;;;;;;;13.47;100.00;100330.30;105915;1256;63997;-88
2023/04/28 05:12:46;;;;;;;8.00;6.60;;;;;;;13.50;100.00;100331.20;105797;1257;72718;-86
2023/04/28 05:15:17;;;;;;;11.20;7.00;;;;;;;13.51;100.00;100334.45;106026;1253;62105;-88
2023/04/28 05:17:52;;;;;;;9.60;7.40;;;;;;;13.51;100.00;100336.72;105890;1257;60397;-88
2023/04/28 05:20:19;;;;;;;10.00;7.60;;;;;;;13.51;100.00;100335.45;106041;1257;74187;-86
2023/04/28 05:22:46;;;;;;;8.80;6.70;;;;;;;13.52;100.00;100334.33;106600;1253;64624;-84
2023/04/28 05:25:13;;;;;;;9.00;7.40;;;;;;;13.51;100.00;100339.49;106336;1252;72439;-84
2023/04/28 05:27:40;;;;;;;8.20;7.20;;;;;;;13.52;100.00;100344.74;105848;1253;63253;-85
2023/04/28 05:30:07;;;;;;;7.70;6.80;;;;;;;13.54;100.00;100346.48;105896;1254;60322;-86
2023/04/28 05:32:35;;;;;;;7.60;6.80;;;;;;;13.57;100.00;100350.28;105914;1255;74817;-86
2023/04/28 05:35:02;;;;;;;9.20;7.70;;;;;;;13.57;100.00;100347.84;105971;1255;63015;-83
2023/04/28 05:37:29;;;;;;;9.80;7.40;;;;;;;13.53;100.00;100349.23;105934;1253;73689;-85
2023/04/28 05:39:56;;;;;;;8.10;6.80;;;;;;;13.47;100.00;100348.22;106113;1257;62042;-87
2023/04/28 05:42:23;;;;;;;9.40;6.90;;;;;;;13.48;100.00;100348.52;108309;1252;60787;-85
2023/04/28 05:44:51;;;;;;;7.60;6.90;;;;;;;13.50;100.00;100351.00;107400;1253;73840;-84
2023/04/28 05:47:18;;;;;;;11.00;6.90;;;;;;;13.51;100.00;100360.92;106266;1254;63566;-87
2023/04/28 05:49:45;;;;;;;8.10;7.30;;;;;;;13.53;100.00;100368.31;105849;1255;73882;-85
2023/04/28 05:52:14;;;;;;;9.40;8.10;;;;;;;13.57;100.00;100365.23;105702;1253;63266;-87
2023/04/28 05:54:41;;;;;;;11.30;8.00;;;;;;;13.57;100.00;100366.07;105855;1253;61129;-86
2023/04/28 05:57:08;;;;;;;9.30;8.30;;;;;;;13.55;100.00;100364.17;105903;1253;74909;-84
2023/04/28 05:59:35;;;;;;;8.60;7.60;;;;;;;13.53;100.00;100368.70;105934;1253;64793;-84
2023/04/28 06:02:02;;;;;;;11.00;7.70;;;;;;;13.52;100.00;100365.07;106010;1257;73670;-82
2023/04/28 06:04:29;;;;;;;9.10;7.60;;;;;;;13.52;100.00;100364.19;106106;1256;63275;-83
2023/04/28 06:06:57;;;;;;;8.20;7.40;;;;;;;13.48;100.00;100365.22;106186;1253;61585;-86
2023/04/28 06:09:25;;;;;;;9.90;8.10;;;;;;;13.41;100.00;100366.27;106541;1252;73923;-85
2023/04/28 06:11:52;;;;;;;8.40;7.20;;;;;;;13.35;100.00;100367.75;105922;1253;63628;-85
2023/04/28 06:14:21;;;;;;;9.10;8.10;;;;;;;13.34;100.00;100372.23;106128;1257;72655;-84
2023/04/28 06:16:47;;;;;;;9.60;8.60;;;;;;;13.37;100.00;100368.33;106085;1253;63276;-86
2023/04/28 06:19:17;;;;;;;9.90;8.00;;;;;;;13.40;100.00;100363.50;105892;1258;60424;-85
2023/04/28 06:21:45;;;;;;;11.30;9.10;;;;;;;13.47;100.00;100365.14;105840;1254;75562;-84
2023/04/28 06:24:12;;;;;;;10.90;7.40;;;;;;;13.55;100.00;100360.63;105838;1257;64960;-85
2023/04/28 06:26:40;;;;;;;9.20;7.60;;;;;;;13.60;100.00;100360.92;105813;1255;73531;-82
2023/04/28 06:29:09;;;;;;;10.50;8.70;;;;;;;13.62;100.00;100367.45;105832;1258;63588;-87
2023/04/28 06:31:35;;;;;;;10.10;8.30;;;;;;;13.63;100.00;100368.77;106144;1252;61152;-87
2023/04/28 06:34:03;;;;;;;10.20;7.70;;;;;;;13.65;100.00;100376.91;106132;1256;74532;-87
2023/04/28 06:36:30;;;;;;;8.10;6.80;;;;;;;13.67;100.00;100384.85;105935;1257;66205;-86
2023/04/28 06:38:57;;;;;;;9.50;7.40;;;;;;;13.73;100.00;100398.45;105864;1253;73920;-87
2023/04/28 06:41:24;;;;;;;9.00;7.60;;;;;;;13.73;100.00;100404.26;106009;1256;61777;-87
2023/04/28 06:43:52;;;;;;;10.20;7.00;;;;;;;13.72;100.00;100407.35;105947;1255;61230;-84
2023/04/28 06:46:24;;;;;;;9.00;7.70;;;;;;;13.66;100.00;100413.39;105975;1252;73905;-85
2023/04/28 06:48:51;;;;;;;8.40;7.50;;;;;;;13.61;100.00;100418.82;105949;1257;65157;-86
2023/04/28 06:51:18;;;;;;;10.00;8.30;;;;;;;13.61;100.00;100420.61;105837;1255;74012;-86
2023/04/28 06:53:45;;;;;;;8.90;7.20;;;;;;;13.64;100.00;100421.23;105860;1253;62973;-87
2023/04/28 06:56:13;;;;;;;9.50;7.10;;;;;;;13.68;100.00;100422.20;105844;1253;61073;-87
2023/04/28 07:03:10;;;;;;;8.70;7.50;;;;;;;13.65;100.00;100431.86;105896;1253;65170;-83
2023/04/28 07:05:38;;;;;;;9.80;7.60;;;;;;;13.62;100.00;100440.89;105857;1258;73647;-84
2023/04/28 07:08:16;;;;;;;8.20;7.20;;;;;;;13.60;100.00;100441.27;105741;1253;60886;-86
2023/04/28 07:10:43;;;;;;;10.40;8.70;;;;;;;13.58;100.00;100439.41;105954;1254;61151;-87
2023/04/28 07:13:10;;;;;;;9.90;7.30;;;;;;;13.58;100.00;100445.23;105788;1256;75065;-86
2023/04/28 07:15:37;;;;;;;10.90;7.70;;;;;;;13.58;100.00;100448.58;105874;1252;63582;-85
2023/04/28 07:18:04;;;;;;;8.90;7.90;;;;;;;13.57;100.00;100444.45;105893;1253;74221;-85
2023/04/28 07:20:31;;;;;;;9.10;8.20;;;;;;;13.55;100.00;100447.91;105890;1253;62979;-85
2023/04/28 07:22:58;;;;;;;9.40;7.20;;;;;;;13.53;100.00;100443.71;106067;1256;60375;-86
2023/04/28 07:25:25;;;;;;;10.00;8.70;;;;;;;13.49;100.00;100436.64;106218;1255;72790;-86
2023/04/28 07:27:53;;;;;;;10.10;8.00;;;;;;;13.43;100.00;100435.97;105858;1256;63606;-84
2023/04/28 07:30:20;;;;;;;9.10;7.40;;;;;;;13.40;100.00;100426.60;105861;1253;72648;-87
2023/04/28 07:32:54;;;;;;;9.30;7.50;;;;;;;13.41;100.00;100431.06;105933;1255;62786;-87
2023/04/28 07:35:22;;;;;;;9.90;8.10;;;;;;;13.41;100.00;100424.71;106191;1252;61633;-86
2023/04/28 07:37:49;;;;;;;10.90;7.60;;;;;;;13.42;100.00;100423.30;106126;1253;74957;-85
2023/04/28 07:40:16;;;;;;;14.40;7.50;;;;;;;13.43;100.00;100422.80;105981;1253;64590;-86
2023/04/28 07:42:43;;;;;;;9.00;6.90;;;;;;;13.47;100.00;100426.58;105772;1253;73560;-86
2023/04/28 07:45:10;;;;;;;9.30;6.90;;;;;;;13.51;100.00;100423.65;105737;1252;62877;-88
2023/04/28 07:47:37;;;;;;;8.90;7.70;;;;;;;13.55;100.00;100426.86;105805;1256;60454;-87
2023/04/28 07:50:05;;;;;;;11.20;7.30;;;;;;;13.59;100.00;100429.52;105788;1255;75425;-84
2023/04/28 07:52:32;;;;;;;8.40;6.30;;;;;;;13.61;100.00;100426.40;105761;1253;63661;-88
2023/04/28 07:54:59;;;;;;;8.20;6.80;;;;;;;13.61;100.00;100429.05;105737;1253;74181;-86
2023/04/28 07:57:28;;;;;;;7.90;7.10;;;;;;;13.60;100.00;100424.35;105986;1255;61828;-84
2023/04/28 07:59:54;;;;;;;10.90;7.00;;;;;;;13.57;100.00;100422.65;105889;1255;60362;-87
2023/04/28 08:02:21;;;;;;;7.90;7.10;;;;;;;13.56;100.00;100421.48;105889;1253;73791;-87
2023/04/28 08:04:48;;;;;;;8.20;7.10;;;;;;;13.58;100.00;100413.61;105805;1256;64552;-86
2023/04/28 08:07:16;;;;;;;8.70;7.80;;;;;;;13.61;100.00;100413.89;105908;1257;72540;-84
2023/04/28 08:09:46;;;;;;;8.10;6.60;;;;;;;13.63;100.00;100410.98;105892;1257;63021;-85
2023/04/28 08:12:13;;;;;;;9.70;6.80;;;;;;;13.65;100.00;100407.77;105873;1253;61871;-86
2023/04/28 08:14:40;;;;;;;9.00;7.70;;;;;;;13.70;100.00;100403.98;105804;1253;74902;-85
2023/04/28 08:17:08;;;;;;;7.80;7.00;;;;;;;13.70;100.00;100405.36;105842;1255;63922;-86
2023/04/28 08:19:36;;;;;;;7.40;6.40;;;;;;;13.69;100.00;100405.42;105934;1257;72601;-88
2023/04/28 08:22:05;;;;;;;10.60;7.40;;;;;;;13.68;100.00;100403.70;105840;1258;62543;-85
2023/04/28 08:24:35;;;;;;;6.70;6.00;;;;;;;13.71;100.00;100400.85;105907;1251;61310;-85
2023/04/28 08:27:02;;;;;;;7.80;6.90;;;;;;;13.76;100.00;100396.59;105828;1253;74580;-85
2023/04/28 08:29:30;;;;;;;6.90;6.30;;;;;;;13.83;100.00;100392.92;105885;1259;64216;-86
2023/04/28 08:31:57;;;;;;;8.60;7.10;;;;;;;13.88;100.00;100386.86;105960;1256;72625;-85
2023/04/28 08:34:24;;;;;;;8.80;6.70;;;;;;;13.92;100.00;100384.34;105835;1253;61786;-85
2023/04/28 08:36:52;;;;;;;9.70;7.00;;;;;;;13.93;100.00;100383.85;105840;1253;61128;-87
2023/04/28 08:39:22;;;;;;;7.90;6.10;;;;;;;13.95;100.00;100384.95;106035;1258;72638;-86
2023/04/28 08:41:50;;;;;;;7.40;5.80;;;;;;;13.98;100.00;100384.70;106416;1255;64706;-86
2023/04/28 08:44:17;;;;;;;7.50;6.60;;;;;;;14.02;100.00;100386.33;106007;1257;73715;-84
2023/04/28 08:46:45;;;;;;;9.50;6.20;;;;;;;14.09;100.00;100384.73;106003;1256;61770;-88
2023/04/28 08:49:17;;;;;;;6.20;5.60;;;;;;;14.16;100.00;100382.24;105973;1256;60384;-84
2023/04/28 08:52:07;;;;;;;6.00;5.40;;;;;;;14.22;100.00;100378.30;106115;1259;73839;-84
2023/04/28 08:54:35;;;;;;;6.90;5.80;;;;;;;14.22;100.00;100374.07;106157;1256;64840;-83
2023/04/28 08:57:03;;;;;;;6.40;5.60;;;;;;;14.23;100.00;100371.85;106052;1254;73615;-85
2023/04/28 08:59:30;;;;;;;8.30;5.10;;;;;;;14.27;100.00;100365.89;105932;1257;62001;-86
2023/04/28 09:01:57;;;;;;;7.20;5.90;;;;;;;14.31;100.00;100365.95;105947;1253;61260;-85
2023/04/28 09:04:24;;;;;;;6.60;5.00;;;;;;;14.34;100.00;100363.23;105930;1253;74284;-86
2023/04/28 09:06:52;;;;;;;5.50;5.00;;;;;;;14.40;100.00;100366.65;105938;1253;64151;-85
2023/04/28 09:09:20;;;;;;;5.60;4.90;;;;;;;14.43;100.00;100366.44;105883;1258;73498;-85
2023/04/28 09:11:52;;;;;;;6.00;5.40;;;;;;;14.44;100.00;100366.64;105867;1255;61962;-88
2023/04/28 09:14:19;;;;;;;6.50;5.20;;;;;;;14.48;100.00;100366.82;105840;1258;60428;-88
2023/04/28 09:16:46;;;;;;;10.80;6.00;;;;;;;14.49;100.00;100370.29;105855;1253;73760;-86
2023/04/28 09:19:14;;;;;;;9.30;5.40;;;;;;;14.50;100.00;100371.98;105770;1253;64883;-87
2023/04/28 09:21:56;;;;;;;5.30;4.80;;;;;;;14.52;100.00;100372.02;105801;1253;73655;-86
2023/04/28 09:24:30;;;;;;;5.90;5.30;;;;;;;14.53;100.00;100371.45;105821;1253;63561;-88
2023/04/28 09:26:58;;;;;;;6.10;4.90;;;;;;;14.52;100.00;100369.20;105815;1258;60478;-85
2023/04/28 09:29:25;;;;;;;5.60;5.00;;;;;;;14.54;100.00;100374.38;105784;1258;74894;-85
2023/04/28 09:31:52;;;;;;;4.70;4.20;;;;;;;14.55;100.00;100370.19;105811;1256;63906;-85
2023/04/28 09:34:20;;;;;;;6.40;4.00;;;;;;;14.54;100.00;100372.80;105751;1253;72650;-86
2023/04/28 09:36:47;;;;;;;5.90;4.30;;;;;;;14.53;100.00;100372.48;105840;1254;61974;-86
2023/04/28 09:39:26;;;;;;;5.70;3.90;;;;;;;14.52;100.00;100375.92;105776;1253;61988;-86
2023/04/28 09:41:53;;;;;;;4.20;3.80;;;;;;;14.49;100.00;100375.96;105845;1253;74831;-85
2023/04/28 09:44:20;;;;;;;3.90;3.30;;;;;;;14.45;100.00;100377.84;106539;1253;63687;-84
2023/04/28 09:46:47;;;;;;;3.20;2.90;;;;;;;14.42;100.00;100378.45;107268;1254;73503;-83
2023/04/28 09:49:14;;;;;;;3.40;3.10;;;;;;;14.39;100.00;100380.83;106371;1254;61154;-83
2023/04/28 09:51:41;;;;;;;3.60;2.50;;;;;;;14.36;100.00;100383.52;106072;1256;61777;-86
2023/04/28 09:54:08;;;;;;;3.40;2.70;;;;;;;14.37;100.00;100385.37;106028;1257;74642;-83
2023/04/28 09:56:38;;;;;;;4.90;3.50;;;;;;;14.37;100.00;100384.85;105781;1257;64793;-86
2023/04/28 09:59:07;;;;;;;4.20;2.80;;;;;;;14.35;100.00;100387.46;105951;1255;73685;-85
2023/04/28 10:01:39;;;;;;;3.40;2.50;;;;;;;14.29;100.00;100383.50;105820;1258;62957;-85
2023/04/28 10:04:06;;;;;;;4.40;2.50;;;;;;;14.23;100.00;100387.52;105736;1256;61404;-85
2023/04/28 10:06:35;;;;;;;2.70;2.20;;;;;;;14.20;100.00;100389.12;105856;1259;74826;-83
2023/04/28 10:09:02;;;;;;;4.50;2.70;;;;;;;14.22;100.00;100394.11;106449;1253;64777;-85
2023/04/28 10:11:29;;;;;;;2.80;2.40;;;;;;;14.25;100.00;100394.04;106011;1254;73408;-86
2023/04/28 10:13:56;;;;;;;3.30;2.80;;;;;;;14.26;100.00;100391.11;105880;1258;62643;-87
2023/04/28 10:16:23;;;;;;;2.50;2.30;;;;;;;14.25;100.00;100385.93;105886;1257;61383;-87
2023/04/28 10:18:50;;;;;;;2.50;2.30;;;;;;;14.25;100.00;100388.55;105865;1253;74738;-86
2023/04/28 10:21:19;;;;;;;2.90;2.50;;;;;;;14.28;100.00;100385.73;106148;1258;64717;-87
2023/04/28 10:23:59;;;;;;;4.80;2.10;;;;;;;14.30;100.00;100387.17;107411;1267;72814;-86
2023/04/28 10:29:00;;;;;;;2.50;1.80;;;;;;;14.41;100.00;100384.34;102696;1290;616818;-87
2023/04/28 10:31:27;;;;;;;3.00;2.00;;;;;;;14.40;100.00;100377.76;105624;1254;59827;-87
2023/04/28 10:33:54;;;;;;;2.00;1.60;;;;;;;14.39;100.00;100367.96;105742;1258;60594;-85
2023/04/28 10:36:46;;;;;;;1.90;1.80;;;;;;;14.40;100.00;100365.75;105554;1254;72118;-87
2023/04/28 10:39:13;;;;;;;2.70;2.40;;;;;;;14.45;100.00;100371.00;105857;1258;64607;-88
2023/04/28 10:41:40;;;;;;;1.70;1.60;;;;;;;14.51;100.00;100373.29;105257;1251;813166;-87
2023/04/28 10:44:43;;;;;;;4.40;1.70;;;;;;;14.54;100.00;100374.55;106131;1256;61972;-86
2023/04/28 10:47:10;;;;;;;2.70;1.50;;;;;;;14.51;100.00;100370.48;105555;1261;61141;-89
2023/04/28 10:49:59;;;;;;;4.00;1.30;;;;;;;14.50;100.00;100367.73;105831;1262;73262;-83
2023/04/28 10:52:47;;;;;;;1.80;1.20;;;;;;;14.51;100.00;100363.95;106139;1260;63944;-85
2023/04/28 10:55:38;;;;;;;1.50;1.30;;;;;;;14.53;100.00;100360.70;105589;1261;72854;-85
2023/04/28 10:58:14;;;;;;;1.40;1.30;;;;;;;14.54;100.00;100359.42;105491;1262;63003;-85
2023/04/28 11:00:42;;;;;;;1.80;1.70;;;;;;;14.52;100.00;100358.99;105387;1258;61213;-85
2023/04/28 11:03:08;;;;;;;1.40;1.30;;;;;;;14.53;100.00;100358.08;105531;1260;73019;-86
2023/04/28 11:05:35;;;;;;;1.60;1.40;;;;;;;14.55;100.00;100357.52;105277;1259;64832;-87
2023/04/28 11:08:17;;;;;;;1.40;1.30;;;;;;;14.57;100.00;100351.40;105420;1260;73738;-86
2023/04/28 11:11:16;;;;;;;2.10;1.30;;;;;;;14.57;100.00;100349.65;105355;1260;62082;-86
2023/04/28 11:13:45;;;;;;;2.30;1.00;;;;;;;14.53;100.00;100348.02;105540;1260;61238;-85
2023/04/28 11:16:17;;;;;;;1.10;1.00;;;;;;;14.49;100.00;100345.16;105402;1260;73096;-87
2023/04/28 11:18:54;;;;;;;2.40;1.40;;;;;;;14.45;100.00;100343.16;105355;1260;64919;-87
2023/04/28 11:21:23;;;;;;;1.00;0.90;;;;;;;14.42;100.00;100336.39;105540;1256;73304;-89